createdAt,value
2018-05-08T00:01:00.720Z,14.60
2018-05-08T00:03:28.987Z,14.60
2018-05-08T00:05:57.301Z,14.60
2018-05-08T00:08:25.566Z,14.60
2018-05-08T00:10:53.846Z,14.60
2018-05-08T00:13:22.111Z,14.50
2018-05-08T00:15:50.393Z,14.50
2018-05-08T00:18:18.653Z,14.50
2018-05-08T00:20:47.100Z,14.40
2018-05-08T00:23:15.345Z,14.40
2018-05-08T00:25:44.509Z,14.40
2018-05-08T00:28:13.703Z,14.40
2018-05-08T00:30:41.952Z,14.30
2018-05-08T00:33:10.234Z,14.30
2018-05-08T00:35:38.493Z,14.20
2018-05-08T00:38:06.789Z,14.20
2018-05-08T00:40:35.082Z,14.20
2018-05-08T00:43:04.130Z,14.10
2018-05-08T00:45:32.386Z,14.10
2018-05-08T00:48:00.670Z,14.10
2018-05-08T00:50:28.918Z,14.10
2018-05-08T00:52:57.200Z,14.00
2018-05-08T00:55:26.218Z,14.00
2018-05-08T00:57:54.511Z,13.90
2018-05-08T01:00:22.775Z,13.90
2018-05-08T01:02:51.031Z,13.90
2018-05-08T01:05:19.319Z,13.90
2018-05-08T01:07:47.568Z,13.80
2018-05-08T01:10:15.843Z,13.80
2018-05-08T01:12:44.102Z,13.70
2018-05-08T01:15:12.385Z,13.80
2018-05-08T01:17:40.652Z,13.70
2018-05-08T01:20:08.993Z,13.70
2018-05-08T01:22:37.229Z,13.60
2018-05-08T01:25:06.256Z,13.60
2018-05-08T01:27:35.326Z,13.60
2018-05-08T01:30:03.569Z,13.80
2018-05-08T01:32:31.857Z,13.50
2018-05-08T01:35:00.108Z,13.50
2018-05-08T01:37:28.889Z,13.50
2018-05-08T01:39:58.711Z,13.40
2018-05-08T01:42:28.199Z,13.40
2018-05-08T01:44:56.452Z,13.30
2018-05-08T01:47:25.465Z,13.30
2018-05-08T01:49:53.762Z,13.20
2018-05-08T01:52:22.018Z,13.30
2018-05-08T01:54:50.301Z,13.20
2018-05-08T01:57:18.634Z,13.10
2018-05-08T01:59:46.955Z,13.10
2018-05-08T02:02:15.207Z,13.10
2018-05-08T02:04:44.254Z,13.00
2018-05-08T02:07:12.517Z,13.00
2018-05-08T02:09:40.819Z,13.00
2018-05-08T02:12:09.887Z,12.90
2018-05-08T02:14:38.113Z,12.90
2018-05-08T02:17:06.391Z,12.90
2018-05-08T02:19:34.663Z,12.80
2018-05-08T02:22:02.948Z,12.80
2018-05-08T02:24:31.977Z,12.80
2018-05-08T02:27:00.819Z,12.70
2018-05-08T02:29:29.082Z,12.70
2018-05-08T02:31:57.365Z,12.70
2018-05-08T02:34:25.618Z,12.70
2018-05-08T02:36:54.832Z,12.60
2018-05-08T02:39:23.120Z,12.60
2018-05-08T02:41:51.379Z,12.50
2018-05-08T02:44:20.445Z,12.50
2018-05-08T02:46:49.470Z,12.50
2018-05-08T02:49:17.751Z,12.40
2018-05-08T02:51:46.005Z,12.40
2018-05-08T02:54:14.338Z,12.40
2018-05-08T02:56:42.608Z,12.40
2018-05-08T02:59:10.876Z,12.30
2018-05-08T03:01:39.165Z,12.30
2018-05-08T03:04:07.436Z,12.30
2018-05-08T03:06:35.710Z,12.50
2018-05-08T03:09:04.037Z,12.30
2018-05-08T03:11:32.310Z,12.20
2018-05-08T03:14:00.582Z,12.20
2018-05-08T03:16:28.871Z,12.20
2018-05-08T03:18:57.138Z,12.20
2018-05-08T03:21:26.174Z,12.10
2018-05-08T03:23:54.503Z,12.10
2018-05-08T03:26:22.763Z,12.10
2018-05-08T03:28:51.030Z,12.10
2018-05-08T03:31:19.281Z,12.00
2018-05-08T03:33:47.599Z,12.00
2018-05-08T03:36:16.615Z,11.90
2018-05-08T03:38:45.630Z,11.80
2018-05-08T03:41:13.910Z,11.80
2018-05-08T03:43:42.175Z,11.80
2018-05-08T03:46:11.905Z,11.80
2018-05-08T03:48:40.167Z,11.80
2018-05-08T03:51:09.233Z,11.80
2018-05-08T03:53:37.507Z,11.70
2018-05-08T03:56:05.781Z,11.80
2018-05-08T03:58:34.046Z,11.80
2018-05-08T04:01:14.050Z,11.80
2018-05-08T04:03:54.167Z,11.80
2018-05-08T04:06:56.047Z,11.80
2018-05-08T04:09:24.322Z,11.70
2018-05-08T04:11:52.610Z,11.70
2018-05-08T04:14:20.883Z,11.70
2018-05-08T04:16:49.954Z,11.70
2018-05-08T04:19:18.286Z,11.70
2018-05-08T04:21:47.275Z,11.80
2018-05-08T04:24:16.395Z,11.80
2018-05-08T04:26:44.670Z,11.80
2018-05-08T04:29:12.944Z,11.80
2018-05-08T04:31:41.190Z,11.90
2018-05-08T04:34:09.475Z,11.90
2018-05-08T04:36:38.510Z,12.00
2018-05-08T04:39:06.805Z,12.00
2018-05-08T04:41:35.063Z,12.10
2018-05-08T04:44:03.320Z,12.10
2018-05-08T04:46:31.602Z,12.20
2018-05-08T04:48:59.846Z,12.20
2018-05-08T04:51:28.893Z,12.40
2018-05-08T04:53:58.123Z,12.30
2018-05-08T04:56:26.422Z,12.40
2018-05-08T04:58:54.685Z,12.40
2018-05-08T05:01:22.974Z,12.50
2018-05-08T05:03:51.214Z,12.60
2018-05-08T05:06:19.539Z,12.70
2018-05-08T05:08:47.782Z,12.80
2018-05-08T05:11:16.050Z,12.80
2018-05-08T05:13:44.336Z,12.90
2018-05-08T05:16:12.598Z,13.00
2018-05-08T05:18:40.906Z,13.00
2018-05-08T05:21:09.184Z,13.10
2018-05-08T05:23:37.495Z,13.20
2018-05-08T05:26:06.530Z,13.20
2018-05-08T05:28:34.813Z,13.20
2018-05-08T05:31:03.089Z,13.30
2018-05-08T05:33:31.415Z,13.40
2018-05-08T05:35:59.667Z,13.50
2018-05-08T05:38:28.776Z,13.60
2018-05-08T05:40:57.042Z,13.60
2018-05-08T05:43:25.299Z,13.70
2018-05-08T05:45:53.595Z,13.80
2018-05-08T05:48:21.878Z,13.90
2018-05-08T05:50:50.163Z,14.00
2018-05-08T05:53:18.432Z,14.10
2018-05-08T05:55:46.714Z,14.20
2018-05-08T05:58:15.871Z,14.30
2018-05-08T06:00:44.161Z,14.30
2018-05-08T06:03:12.422Z,14.40
2018-05-08T06:05:42.400Z,14.50
2018-05-08T06:08:11.433Z,14.80
2018-05-08T06:10:39.721Z,14.70
2018-05-08T06:13:07.970Z,14.80
2018-05-08T06:15:36.257Z,15.00
2018-05-08T06:18:05.433Z,15.10
2018-05-08T06:20:34.501Z,15.30
2018-05-08T06:23:02.751Z,15.30
2018-05-08T06:25:31.013Z,15.40
2018-05-08T06:27:59.312Z,15.50
2018-05-08T06:30:27.600Z,15.70
2018-05-08T06:32:55.878Z,15.80
2018-05-08T06:35:24.134Z,15.90
2018-05-08T06:37:52.417Z,16.00
2018-05-08T06:40:20.666Z,16.10
2018-05-08T06:42:48.981Z,16.20
2018-05-08T06:45:17.225Z,16.30
2018-05-08T06:47:45.589Z,16.40
2018-05-08T06:50:13.842Z,16.60
2018-05-08T06:52:42.117Z,16.70
2018-05-08T06:55:10.368Z,16.80
2018-05-08T06:57:38.701Z,16.90
2018-05-08T07:00:06.931Z,17.00
2018-05-08T07:02:35.185Z,17.20
2018-05-08T07:05:04.256Z,17.40
2018-05-08T07:07:33.285Z,17.60
2018-05-08T07:10:01.585Z,17.60
2018-05-08T07:12:29.838Z,17.70
2018-05-08T07:14:58.157Z,17.80
2018-05-08T07:17:26.705Z,18.00
2018-05-08T07:19:54.934Z,18.10
2018-05-08T07:22:23.993Z,18.40
2018-05-08T07:24:52.254Z,18.40
2018-05-08T07:27:20.566Z,18.50
2018-05-08T07:29:48.806Z,18.70
2018-05-08T07:32:17.087Z,18.80
2018-05-08T07:34:45.375Z,19.00
2018-05-08T07:37:13.632Z,19.20
2018-05-08T07:39:41.933Z,19.30
2018-05-08T07:42:10.215Z,19.40
2018-05-08T07:44:38.491Z,19.50
2018-05-08T07:47:06.767Z,19.70
2018-05-08T07:49:35.499Z,19.80
2018-05-08T07:52:04.514Z,20.10
2018-05-08T07:54:33.328Z,20.10
2018-05-08T07:57:01.613Z,20.20
2018-05-08T07:59:29.863Z,20.30
2018-05-08T08:01:58.162Z,20.50
2018-05-08T08:04:26.440Z,20.60
2018-05-08T08:06:54.738Z,20.80
2018-05-08T08:09:23.034Z,20.90
2018-05-08T08:11:51.293Z,21.10
2018-05-08T08:14:19.584Z,21.30
2018-05-08T08:16:48.200Z,21.40
2018-05-08T08:19:17.261Z,21.80
2018-05-08T08:21:45.521Z,21.80
2018-05-08T08:24:13.900Z,22.00
2018-05-08T08:26:42.169Z,22.10
2018-05-08T08:29:10.570Z,22.20
2018-05-08T08:31:38.891Z,22.40
2018-05-08T08:34:07.161Z,22.60
2018-05-08T08:36:36.205Z,22.80
2018-05-08T08:39:04.523Z,22.70
2018-05-08T08:41:32.776Z,23.00
2018-05-08T08:44:01.075Z,23.10
2018-05-08T08:46:30.209Z,23.30
2018-05-08T08:48:58.397Z,23.20
2018-05-08T08:51:26.709Z,23.40
2018-05-08T08:53:54.988Z,23.50
2018-05-08T08:56:23.268Z,23.60
2018-05-08T08:58:51.530Z,23.70
2018-05-08T09:01:19.820Z,23.80
2018-05-08T09:03:48.085Z,23.90
2018-05-08T09:06:16.380Z,24.00
2018-05-08T09:08:44.644Z,24.10
2018-05-08T09:11:13.006Z,24.20
2018-05-08T09:13:42.006Z,24.30
2018-05-08T09:16:10.288Z,24.30
2018-05-08T09:18:38.596Z,24.40
2018-05-08T09:21:06.872Z,24.50
2018-05-08T09:23:35.973Z,24.60
2018-05-08T09:26:04.250Z,24.60
2018-05-08T09:28:32.526Z,24.70
2018-05-08T09:31:00.829Z,24.80
2018-05-08T09:33:29.856Z,24.90
2018-05-08T09:35:58.160Z,24.90
2018-05-08T09:38:26.413Z,25.00
2018-05-08T09:40:55.266Z,25.00
2018-05-08T09:43:24.316Z,25.10
2018-05-08T09:45:52.572Z,25.10
2018-05-08T09:48:21.634Z,25.20
2018-05-08T09:50:49.881Z,25.30
2018-05-08T09:53:18.170Z,25.30
2018-05-08T09:55:46.464Z,25.40
2018-05-08T09:58:14.757Z,25.40
2018-05-08T10:00:43.039Z,25.40
2018-05-08T10:03:11.322Z,25.40
2018-05-08T10:05:40.482Z,25.50
2018-05-08T10:08:08.739Z,25.50
2018-05-08T10:10:37.028Z,25.60
2018-05-08T10:13:06.096Z,25.60
2018-05-08T10:15:34.393Z,25.60
2018-05-08T10:18:02.775Z,25.60
2018-05-08T10:20:31.128Z,25.70
2018-05-08T10:22:59.400Z,25.80
2018-05-08T10:25:27.729Z,25.80
2018-05-08T10:27:56.777Z,26.00
2018-05-08T10:30:25.047Z,26.00
2018-05-08T10:32:53.346Z,26.10
2018-05-08T10:35:21.603Z,26.10
2018-05-08T10:37:49.891Z,26.10
2018-05-08T10:40:18.155Z,26.10
2018-05-08T10:42:46.518Z,26.20
2018-05-08T10:45:14.727Z,26.20
2018-05-08T10:47:43.114Z,26.30
2018-05-08T10:50:11.303Z,26.40
2018-05-08T10:52:40.240Z,26.40
2018-05-08T10:55:09.300Z,26.30
2018-05-08T10:57:37.576Z,26.30
2018-05-08T11:00:06.631Z,26.30
2018-05-08T11:02:34.903Z,26.30
2018-05-08T11:05:03.189Z,26.40
2018-05-08T11:07:31.451Z,26.40
2018-05-08T11:10:01.451Z,26.40
2018-05-08T11:12:29.845Z,26.40
2018-05-08T11:14:58.062Z,26.40
2018-05-08T11:17:26.340Z,26.50
2018-05-08T11:19:54.587Z,26.60
2018-05-08T11:22:22.907Z,26.70
2018-05-08T11:24:51.183Z,26.70
2018-05-08T11:27:20.340Z,26.90
2018-05-08T11:29:48.595Z,27.20
2018-05-08T11:32:16.923Z,27.80
2018-05-08T11:34:45.183Z,28.70
2018-05-08T11:37:13.447Z,29.50
2018-05-08T11:39:42.648Z,30.30
2018-05-08T11:42:10.934Z,31.00
2018-05-08T11:44:39.305Z,31.70
2018-05-08T11:47:07.514Z,32.20
2018-05-08T11:49:35.800Z,32.70
2018-05-08T11:52:04.923Z,33.30
2018-05-08T11:54:33.253Z,33.70
2018-05-08T11:57:01.542Z,34.10
2018-05-08T11:59:29.812Z,34.40
2018-05-08T12:01:58.125Z,35.00
2018-05-08T12:04:26.392Z,35.80
2018-05-08T12:06:55.364Z,36.60
2018-05-08T12:09:23.654Z,37.30
2018-05-08T12:11:52.668Z,38.20
2018-05-08T12:14:20.959Z,38.90
2018-05-08T12:16:49.249Z,39.30
2018-05-08T12:19:17.552Z,39.60
2018-05-08T12:21:45.921Z,39.80
2018-05-08T12:24:14.155Z,40.20
2018-05-08T12:26:42.482Z,40.60
2018-05-08T12:29:11.661Z,40.60
2018-05-08T12:31:39.912Z,40.60
2018-05-08T12:34:08.206Z,40.60
2018-05-08T12:36:37.272Z,40.90
2018-05-08T12:39:05.568Z,40.80
2018-05-08T12:41:34.096Z,41.00
2018-05-08T12:44:02.513Z,41.20
2018-05-08T12:46:31.512Z,41.40
2018-05-08T12:48:59.761Z,41.40
2018-05-08T12:51:28.073Z,41.20
2018-05-08T12:53:56.333Z,40.90
2018-05-08T12:56:24.624Z,40.80
2018-05-08T12:58:52.901Z,40.70
2018-05-08T13:01:21.179Z,40.70
2018-05-08T13:03:49.445Z,40.80
2018-05-08T13:06:17.716Z,41.00
2018-05-08T13:08:46.041Z,40.90
2018-05-08T13:11:14.325Z,41.00
2018-05-08T13:13:42.584Z,41.10
2018-05-08T13:16:12.409Z,41.30
2018-05-08T13:18:40.749Z,41.30
2018-05-08T13:21:09.041Z,41.60
2018-05-08T13:23:37.316Z,41.70
2018-05-08T13:26:05.594Z,41.60
2018-05-08T13:28:33.917Z,41.70
2018-05-08T13:31:02.227Z,41.60
2018-05-08T13:33:30.493Z,41.70
2018-05-08T13:35:59.521Z,41.90
2018-05-08T13:38:27.870Z,41.90
2018-05-08T13:40:56.948Z,41.90
2018-05-08T13:43:25.319Z,41.80
2018-05-08T13:45:54.525Z,41.90
2018-05-08T13:48:22.917Z,41.90
2018-05-08T13:50:51.991Z,42.40
2018-05-08T13:53:20.242Z,42.30
2018-05-08T13:55:48.837Z,42.30
2018-05-08T13:58:17.824Z,42.20
2018-05-08T14:00:46.113Z,42.10
2018-05-08T14:03:14.391Z,42.20
2018-05-08T14:05:42.661Z,42.10
2018-05-08T14:08:11.098Z,42.00
2018-05-08T14:10:39.393Z,41.70
2018-05-08T14:13:07.738Z,41.40
2018-05-08T14:15:35.991Z,41.20
2018-05-08T14:18:04.326Z,41.30
2018-05-08T14:20:32.608Z,41.50
2018-05-08T14:23:00.916Z,41.60
2018-05-08T14:25:29.219Z,41.60
2018-05-08T14:27:58.259Z,41.30
2018-05-08T14:30:26.578Z,41.20
2018-05-08T14:32:54.941Z,41.10
2018-05-08T14:35:23.421Z,41.10
2018-05-08T14:37:51.788Z,41.10
2018-05-08T14:40:20.431Z,40.90
2018-05-08T14:42:49.747Z,40.90
2018-05-08T14:45:18.144Z,40.90
2018-05-08T14:47:46.610Z,40.90
2018-05-08T14:50:15.915Z,41.10
2018-05-08T14:52:45.116Z,41.30
2018-05-08T14:55:13.576Z,41.20
2018-05-08T14:57:43.036Z,41.30
2018-05-08T15:00:11.634Z,41.30
2018-05-08T15:02:40.307Z,41.30
2018-05-08T15:05:08.559Z,41.30
2018-05-08T15:07:36.870Z,41.10
2018-05-08T15:10:05.170Z,40.90
2018-05-08T15:12:33.633Z,40.70
2018-05-08T15:15:02.057Z,40.40
2018-05-08T15:17:30.445Z,40.20
2018-05-08T15:19:59.877Z,40.00
2018-05-08T15:22:28.453Z,40.00
2018-05-08T15:24:56.900Z,39.80
2018-05-08T15:27:25.955Z,39.70
2018-05-08T15:29:54.430Z,39.70
2018-05-08T15:32:22.778Z,39.70
2018-05-08T15:34:51.992Z,39.60
2018-05-08T15:37:20.287Z,39.40
2018-05-08T15:39:49.465Z,39.20
2018-05-08T15:42:17.775Z,39.20
2018-05-08T15:44:46.971Z,39.30
2018-05-08T15:47:15.458Z,39.20
2018-05-08T15:49:43.812Z,39.10
2018-05-08T15:52:12.240Z,38.90
2018-05-08T15:54:40.551Z,38.50
2018-05-08T15:57:08.862Z,38.30
2018-05-08T15:59:37.139Z,38.10
2018-05-08T16:02:05.489Z,37.80
2018-05-08T16:04:33.700Z,37.70
2018-05-08T16:07:01.953Z,37.50
2018-05-08T16:09:30.243Z,37.50
2018-05-08T16:11:58.565Z,37.50
2018-05-08T16:14:26.945Z,37.60
2018-05-08T16:16:55.249Z,37.50
2018-05-08T16:19:24.302Z,37.30
2018-05-08T16:21:52.610Z,37.30
2018-05-08T16:24:20.935Z,37.10
2018-05-08T16:26:49.902Z,37.10
2018-05-08T16:29:18.950Z,36.90
2018-05-08T16:31:47.253Z,36.90
2018-05-08T16:34:15.495Z,36.70
2018-05-08T16:36:43.767Z,36.40
2018-05-08T16:39:12.061Z,36.10
2018-05-08T16:41:40.328Z,35.90
2018-05-08T16:44:08.706Z,35.70
2018-05-08T16:46:36.991Z,35.50
2018-05-08T16:49:05.306Z,35.30
2018-05-08T16:51:33.579Z,35.20
2018-05-08T16:54:02.651Z,35.00
2018-05-08T16:56:30.997Z,35.10
2018-05-08T16:58:59.460Z,34.90
2018-05-08T17:01:27.782Z,34.80
2018-05-08T17:03:56.276Z,34.60
2018-05-08T17:09:17.387Z,34.00
2018-05-08T17:11:45.799Z,34.00
2018-05-08T17:14:14.087Z,33.80
2018-05-08T17:16:42.343Z,33.60
2018-05-08T17:19:10.853Z,33.50
2018-05-08T17:21:38.929Z,33.40
2018-05-08T17:24:08.039Z,33.20
2018-05-08T17:26:37.074Z,33.00
2018-05-08T17:29:05.348Z,33.00
2018-05-08T17:31:34.513Z,32.80
2018-05-08T17:34:03.538Z,32.30
2018-05-08T17:36:31.836Z,32.30
2018-05-08T17:39:00.140Z,32.10
2018-05-08T17:41:28.441Z,31.80
2018-05-08T17:43:56.685Z,31.40
2018-05-08T17:46:24.973Z,31.00
2018-05-08T17:48:53.326Z,30.60
2018-05-08T17:51:21.564Z,30.20
2018-05-08T17:53:49.874Z,29.80
2018-05-08T17:56:18.159Z,29.40
2018-05-08T17:58:46.514Z,29.10
2018-05-08T18:01:14.826Z,28.70
2018-05-08T18:03:43.164Z,28.40
2018-05-08T18:06:11.541Z,28.10
2018-05-08T18:08:39.809Z,27.90
2018-05-08T18:11:09.096Z,27.60
2018-05-08T18:13:37.401Z,27.40
2018-05-08T18:16:05.695Z,27.20
2018-05-08T18:18:33.966Z,27.00
2018-05-08T18:21:03.058Z,26.60
2018-05-08T18:23:32.115Z,26.40
2018-05-08T18:26:01.167Z,26.30
2018-05-08T18:28:29.472Z,26.20
2018-05-08T18:30:58.712Z,25.90
2018-05-08T18:33:27.046Z,25.80
2018-05-08T18:35:55.339Z,25.70
2018-05-08T18:38:23.654Z,25.50
2018-05-08T18:40:51.933Z,25.40
2018-05-08T18:43:20.276Z,25.20
2018-05-08T18:45:48.619Z,25.00
2018-05-08T18:48:16.870Z,24.90
2018-05-08T18:50:45.383Z,24.80
2018-05-08T18:53:13.724Z,24.70
2018-05-08T18:55:42.797Z,24.40
2018-05-08T18:58:11.073Z,24.40
2018-05-08T19:00:45.141Z,24.30
2018-05-08T19:03:13.423Z,24.20
2018-05-08T19:05:42.875Z,24.10
2018-05-08T19:08:11.521Z,23.90
2018-05-08T19:10:39.930Z,23.80
2018-05-08T19:13:08.265Z,23.70
2018-05-08T19:15:42.354Z,23.60
2018-05-08T19:18:10.724Z,23.50
2018-05-08T19:20:39.095Z,23.40
2018-05-08T19:23:08.315Z,23.20
2018-05-08T19:25:37.436Z,23.00
2018-05-08T19:41:32.124Z,22.30
2018-05-08T19:44:02.255Z,22.30
2018-05-08T19:46:30.843Z,22.20
2018-05-08T19:48:59.160Z,22.10
2018-05-08T19:51:27.517Z,22.00
2018-05-08T19:53:55.863Z,21.90
2018-05-08T19:56:24.158Z,21.80
2018-05-08T19:58:52.477Z,21.70
2018-05-08T20:01:20.801Z,21.60
2018-05-08T20:03:49.122Z,21.50
2018-05-08T20:06:17.418Z,21.40
2018-05-08T20:08:45.921Z,21.30
2018-05-08T20:11:14.831Z,21.20
2018-05-08T20:13:44.061Z,21.10
2018-05-08T20:16:12.438Z,21.00
2018-05-08T20:18:42.884Z,20.90
2018-05-08T20:23:54.047Z,20.70
2018-05-08T20:26:25.952Z,20.70
2018-05-08T20:28:55.052Z,20.50
2018-05-08T20:31:25.336Z,20.40
2018-05-08T20:33:54.830Z,20.40
2018-05-08T20:36:23.231Z,20.30
2018-05-08T20:38:51.873Z,20.20
2018-05-08T20:41:21.124Z,20.10
2018-05-08T20:43:50.557Z,20.10
2018-05-08T20:46:19.730Z,20.10
2018-05-08T20:48:48.204Z,20.00
2018-05-08T20:51:16.620Z,20.00
2018-05-08T20:53:45.020Z,19.90
2018-05-08T20:56:13.416Z,19.90
2018-05-08T20:58:41.736Z,19.90
2018-05-08T21:01:10.084Z,19.80
2018-05-08T21:03:38.353Z,19.80
2018-05-08T21:06:06.682Z,19.70
2018-05-08T21:08:34.993Z,19.70
2018-05-08T21:11:04.113Z,19.60
2018-05-08T21:13:32.461Z,19.60
2018-05-08T21:16:01.066Z,19.60
2018-05-08T21:18:30.234Z,19.50
2018-05-08T21:20:58.604Z,19.50
2018-05-08T21:23:26.872Z,19.50
2018-05-08T21:25:55.147Z,19.40
2018-05-08T21:28:29.110Z,19.40
2018-05-08T21:31:03.173Z,19.30
2018-05-08T21:33:31.553Z,19.30
2018-05-08T21:35:59.866Z,19.20
2018-05-08T21:38:28.191Z,19.20
2018-05-08T21:40:56.546Z,19.20
2018-05-08T21:43:25.141Z,19.20
2018-05-08T21:45:53.425Z,19.20
2018-05-08T21:48:21.742Z,19.20
2018-05-08T21:50:50.000Z,19.20
2018-05-08T21:53:18.262Z,19.10
2018-05-08T21:55:46.551Z,19.10
2018-05-08T21:58:15.575Z,19.00
2018-05-08T22:00:43.866Z,19.00
2018-05-08T22:03:12.151Z,19.00
2018-05-08T22:05:41.226Z,18.90
2018-05-08T22:08:09.502Z,18.90
2018-05-08T22:10:37.796Z,18.80
2018-05-08T22:13:06.927Z,18.80
2018-05-08T22:15:35.175Z,18.70
2018-05-08T22:18:04.230Z,18.60
2018-05-08T22:20:32.541Z,18.70
2018-05-08T22:23:00.847Z,18.60
2018-05-08T22:25:29.877Z,18.50
2018-05-08T22:27:58.222Z,18.50
2018-05-08T22:30:27.290Z,18.50
2018-05-08T22:32:55.886Z,18.50
2018-05-08T22:35:25.068Z,18.50
2018-05-08T22:37:53.323Z,18.40
2018-05-08T22:40:21.605Z,18.40
2018-05-08T22:42:49.870Z,18.40
2018-05-08T22:45:20.618Z,18.30
2018-05-08T22:47:48.875Z,18.30
2018-05-08T22:50:17.177Z,18.30
2018-05-08T22:52:45.434Z,18.20
2018-05-08T22:55:13.861Z,18.20
2018-05-08T22:57:42.155Z,18.20
2018-05-08T23:00:11.184Z,18.10
2018-05-08T23:02:39.979Z,18.00
2018-05-08T23:05:08.244Z,18.00
2018-05-08T23:07:36.544Z,18.00
2018-05-08T23:10:04.790Z,17.90
2018-05-08T23:12:33.063Z,17.90
2018-05-08T23:15:01.340Z,17.90
2018-05-08T23:17:29.601Z,17.80
2018-05-08T23:19:58.655Z,17.80
2018-05-08T23:22:26.907Z,17.80
2018-05-08T23:24:55.208Z,17.80
2018-05-08T23:27:23.472Z,17.90
2018-05-08T23:29:51.769Z,17.90
2018-05-08T23:32:20.028Z,17.90
2018-05-08T23:34:48.275Z,17.80
2018-05-08T23:37:16.557Z,17.80
2018-05-08T23:39:44.905Z,17.80
2018-05-08T23:42:13.133Z,17.80
2018-05-08T23:44:41.385Z,17.80
2018-05-08T23:47:09.688Z,17.70
2018-05-08T23:49:38.579Z,17.70
2018-05-08T23:52:07.670Z,17.60
2018-05-08T23:54:35.954Z,17.60
2018-05-08T23:57:04.219Z,17.60
2018-05-08T23:59:32.504Z,17.60
